sensor_id;sensor_type;location;lat;lon;timestamp;pressure;altitude;pressure_sealevel;temperature
58102;BMP280;52034;51.926;6.320;2023-03-01T00:00:49;103047.50;;;-0.04
58102;BMP280;52034;51.926;6.320;2023-03-01T00:01:50;103041.72;;;-0.06
58102;BMP280;52034;51.926;6.320;2023-03-01T00:02:50;103035.47;;;-0.06
58102;BMP280;52034;51.926;6.320;2023-03-01T00:03:51;103040.50;;;-0.05
58102;BMP280;52034;51.926;6.320;2023-03-01T00:04:51;103032.47;;;-0.08
58102;BMP280;52034;51.926;6.320;2023-03-01T00:05:52;103037.22;;;-0.09
58102;BMP280;52034;51.926;6.320;2023-03-01T00:06:52;103042.75;;;-0.03
58102;BMP280;52034;51.926;6.320;2023-03-01T00:07:53;103034.47;;;-0.03
58102;BMP280;52034;51.926;6.320;2023-03-01T00:08:54;103040.16;;;0.04
58102;BMP280;52034;51.926;6.320;2023-03-01T00:09:54;103036.66;;;0.04
58102;BMP280;52034;51.926;6.320;2023-03-01T00:11:14;103037.66;;;0.07
58102;BMP280;52034;51.926;6.320;2023-03-01T00:12:15;103030.84;;;0.08
58102;BMP280;52034;51.926;6.320;2023-03-01T00:13:16;103033.09;;;0.09
58102;BMP280;52034;51.926;6.320;2023-03-01T00:14:16;103028.06;;;0.13
58102;BMP280;52034;51.926;6.320;2023-03-01T00:15:17;103029.09;;;0.10
58102;BMP280;52034;51.926;6.320;2023-03-01T00:16:20;103024.56;;;0.13
58102;BMP280;52034;51.926;6.320;2023-03-01T00:17:21;103028.34;;;0.10
58102;BMP280;52034;51.926;6.320;2023-03-01T00:18:21;103028.09;;;0.08
58102;BMP280;52034;51.926;6.320;2023-03-01T00:19:22;103026.59;;;0.07
58102;BMP280;52034;51.926;6.320;2023-03-01T00:20:23;103029.88;;;0.05
58102;BMP280;52034;51.926;6.320;2023-03-01T00:21:24;103033.91;;;0.04
58102;BMP280;52034;51.926;6.320;2023-03-01T00:22:26;103030.63;;;0.06
58102;BMP280;52034;51.926;6.320;2023-03-01T00:23:28;103034.16;;;0.00
58102;BMP280;52034;51.926;6.320;2023-03-01T00:24:29;103037.69;;;0.01
58102;BMP280;52034;51.926;6.320;2023-03-01T00:25:29;103032.22;;;-0.05
58102;BMP280;52034;51.926;6.320;2023-03-01T00:26:30;103030.69;;;-0.06
58102;BMP280;52034;51.926;6.320;2023-03-01T00:27:30;103030.50;;;-0.13
58102;BMP280;52034;51.926;6.320;2023-03-01T00:28:31;103022.72;;;-0.20
58102;BMP280;52034;51.926;6.320;2023-03-01T00:29:31;103017.03;;;-0.28
58102;BMP280;52034;51.926;6.320;2023-03-01T00:30:32;103023.53;;;-0.25
58102;BMP280;52034;51.926;6.320;2023-03-01T00:31:33;103016.78;;;-0.30
58102;BMP280;52034;51.926;6.320;2023-03-01T00:32:33;103015.25;;;-0.36
58102;BMP280;52034;51.926;6.320;2023-03-01T00:33:34;103010.53;;;-0.41
58102;BMP280;52034;51.926;6.320;2023-03-01T00:34:34;103016.03;;;-0.41
58102;BMP280;52034;51.926;6.320;2023-03-01T00:35:35;103012.53;;;-0.42
58102;BMP280;52034;51.926;6.320;2023-03-01T00:36:36;103018.88;;;-0.52
58102;BMP280;52034;51.926;6.320;2023-03-01T00:37:37;103012.56;;;-0.47
58102;BMP280;52034;51.926;6.320;2023-03-01T00:38:39;103008.31;;;-0.48
58102;BMP280;52034;51.926;6.320;2023-03-01T00:39:40;103011.78;;;-0.42
58102;BMP280;52034;51.926;6.320;2023-03-01T00:40:40;103017.28;;;-0.37
58102;BMP280;52034;51.926;6.320;2023-03-01T00:41:42;103013.25;;;-0.36
58102;BMP280;52034;51.926;6.320;2023-03-01T00:42:42;103014.75;;;-0.35
58102;BMP280;52034;51.926;6.320;2023-03-01T00:43:43;103007.72;;;-0.36
58102;BMP280;52034;51.926;6.320;2023-03-01T00:44:43;103009.47;;;-0.33
58102;BMP280;52034;51.926;6.320;2023-03-01T00:45:44;103015.00;;;-0.33
58102;BMP280;52034;51.926;6.320;2023-03-01T00:46:44;103007.00;;;-0.31
58102;BMP280;52034;51.926;6.320;2023-03-01T00:47:44;103014.78;;;-0.40
58102;BMP280;52034;51.926;6.320;2023-03-01T00:48:45;103007.50;;;-0.43
58102;BMP280;52034;51.926;6.320;2023-03-01T00:49:46;103008.03;;;-0.39
58102;BMP280;52034;51.926;6.320;2023-03-01T00:50:46;103008.28;;;-0.43
58102;BMP280;52034;51.926;6.320;2023-03-01T00:51:46;103011.31;;;-0.52
58102;BMP280;52034;51.926;6.320;2023-03-01T00:52:46;102999.81;;;-0.56
58102;BMP280;52034;51.926;6.320;2023-03-01T00:53:52;103001.34;;;-0.66
58102;BMP280;52034;51.926;6.320;2023-03-01T00:54:53;102998.84;;;-0.69
58102;BMP280;52034;51.926;6.320;2023-03-01T00:55:56;102995.34;;;-0.70
58102;BMP280;52034;51.926;6.320;2023-03-01T00:56:57;102991.56;;;-0.72
58102;BMP280;52034;51.926;6.320;2023-03-01T00:57:57;102995.16;;;-0.83
58102;BMP280;52034;51.926;6.320;2023-03-01T00:58:58;102991.38;;;-0.85
58102;BMP280;52034;51.926;6.320;2023-03-01T00:59:58;102983.91;;;-0.96
58102;BMP280;52034;51.926;6.320;2023-03-01T01:00:59;102992.19;;;-1.01
58102;BMP280;52034;51.926;6.320;2023-03-01T01:02:00;102987.19;;;-1.03
58102;BMP280;52034;51.926;6.320;2023-03-01T01:03:00;102991.69;;;-1.05
58102;BMP280;52034;51.926;6.320;2023-03-01T01:04:04;102992.47;;;-1.10
58102;BMP280;52034;51.926;6.320;2023-03-01T01:05:05;102993.69;;;-1.00
58102;BMP280;52034;51.926;6.320;2023-03-01T01:06:13;102987.16;;;-0.97
58102;BMP280;52034;51.926;6.320;2023-03-01T01:07:14;102988.16;;;-1.00
58102;BMP280;52034;51.926;6.320;2023-03-01T01:08:14;102989.69;;;-1.05
58102;BMP280;52034;51.926;6.320;2023-03-01T01:09:17;102993.47;;;-1.13
58102;BMP280;52034;51.926;6.320;2023-03-01T01:10:17;102995.22;;;-1.10
58102;BMP280;52034;51.926;6.320;2023-03-01T01:11:22;102988.47;;;-1.20
58102;BMP280;52034;51.926;6.320;2023-03-01T01:12:23;102990.97;;;-1.28
58102;BMP280;52034;51.926;6.320;2023-03-01T01:13:23;102992.22;;;-1.23
58102;BMP280;52034;51.926;6.320;2023-03-01T01:14:23;102976.44;;;-1.28
58102;BMP280;52034;51.926;6.320;2023-03-01T01:15:24;102990.94;;;-1.17
58102;BMP280;52034;51.926;6.320;2023-03-01T01:16:26;102982.66;;;-1.11
58102;BMP280;52034;51.926;6.320;2023-03-01T01:17:27;102982.41;;;-1.08
58102;BMP280;52034;51.926;6.320;2023-03-01T01:18:27;102981.41;;;-1.05
58102;BMP280;52034;51.926;6.320;2023-03-01T01:19:27;102982.91;;;-1.04
58102;BMP280;52034;51.926;6.320;2023-03-01T01:20:29;102977.88;;;-1.00
58102;BMP280;52034;51.926;6.320;2023-03-01T01:21:29;102978.38;;;-0.96
58102;BMP280;52034;51.926;6.320;2023-03-01T01:22:30;102973.84;;;-0.93
58102;BMP280;52034;51.926;6.320;2023-03-01T01:23:31;102971.59;;;-0.89
58102;BMP280;52034;51.926;6.320;2023-03-01T01:24:31;102968.56;;;-0.86
58102;BMP280;52034;51.926;6.320;2023-03-01T01:25:34;102967.34;;;-0.90
58102;BMP280;52034;51.926;6.320;2023-03-01T01:26:35;102969.81;;;-0.87
58102;BMP280;52034;51.926;6.320;2023-03-01T01:27:35;102964.56;;;-0.85
58102;BMP280;52034;51.926;6.320;2023-03-01T01:28:35;102955.31;;;-0.93
58102;BMP280;52034;51.926;6.320;2023-03-01T01:29:36;102958.56;;;-1.00
58102;BMP280;52034;51.926;6.320;2023-03-01T01:30:37;102959.34;;;-1.05
58102;BMP280;52034;51.926;6.320;2023-03-01T01:31:40;102959.09;;;-1.01
58102;BMP280;52034;51.926;6.320;2023-03-01T01:32:40;102957.84;;;-1.00
58102;BMP280;52034;51.926;6.320;2023-03-01T01:33:41;102957.09;;;-1.01
58102;BMP280;52034;51.926;6.320;2023-03-01T01:34:41;102956.84;;;-0.97
58102;BMP280;52034;51.926;6.320;2023-03-01T01:35:45;102953.09;;;-1.05
58102;BMP280;52034;51.926;6.320;2023-03-01T01:36:52;102955.59;;;-1.02
58102;BMP280;52034;51.926;6.320;2023-03-01T01:37:56;102952.06;;;-1.02
58102;BMP280;52034;51.926;6.320;2023-03-01T01:38:56;102949.81;;;-1.04
58102;BMP280;52034;51.926;6.320;2023-03-01T01:39:58;102951.84;;;-1.04
58102;BMP280;52034;51.926;6.320;2023-03-01T01:40:59;102952.34;;;-1.06
58102;BMP280;52034;51.926;6.320;2023-03-01T01:42:00;102953.59;;;-1.07
58102;BMP280;52034;51.926;6.320;2023-03-01T01:43:01;102954.84;;;-1.08
58102;BMP280;52034;51.926;6.320;2023-03-01T01:44:18;102949.59;;;-1.06
58102;BMP280;52034;51.926;6.320;2023-03-01T01:45:28;102957.09;;;-1.06
58102;BMP280;52034;51.926;6.320;2023-03-01T01:46:33;102953.88;;;-1.10
58102;BMP280;52034;51.926;6.320;2023-03-01T01:47:36;102953.84;;;-1.05
58102;BMP280;52034;51.926;6.320;2023-03-01T01:48:46;102957.09;;;-1.06
58102;BMP280;52034;51.926;6.320;2023-03-01T01:49:53;102954.63;;;-1.15
58102;BMP280;52034;51.926;6.320;2023-03-01T01:51:00;102958.16;;;-1.26
58102;BMP280;52034;51.926;6.320;2023-03-01T01:53:18;102972.91;;;-1.40
58102;BMP280;52034;51.926;6.320;2023-03-01T01:54:27;102958.91;;;-1.42
58102;BMP280;52034;51.926;6.320;2023-03-01T01:55:29;102963.66;;;-1.42
58102;BMP280;52034;51.926;6.320;2023-03-01T01:56:30;102961.16;;;-1.40
58102;BMP280;52034;51.926;6.320;2023-03-01T01:57:39;102960.66;;;-1.39
58102;BMP280;52034;51.926;6.320;2023-03-01T01:58:41;102966.41;;;-1.37
58102;BMP280;52034;51.926;6.320;2023-03-01T01:59:45;102959.91;;;-1.34
58102;BMP280;52034;51.926;6.320;2023-03-01T02:00:48;102966.69;;;-1.29
58102;BMP280;52034;51.926;6.320;2023-03-01T02:01:49;102957.63;;;-1.24
58102;BMP280;52034;51.926;6.320;2023-03-01T02:02:52;102956.41;;;-1.23
58102;BMP280;52034;51.926;6.320;2023-03-01T02:03:55;102950.63;;;-1.20
58102;BMP280;52034;51.926;6.320;2023-03-01T02:05:09;102957.16;;;-1.17
58102;BMP280;52034;51.926;6.320;2023-03-01T02:07:22;102949.59;;;-1.11
58102;BMP280;52034;51.926;6.320;2023-03-01T02:08:26;102957.09;;;-1.06
58102;BMP280;52034;51.926;6.320;2023-03-01T02:09:27;102955.09;;;-1.00
58102;BMP280;52034;51.926;6.320;2023-03-01T02:10:29;102955.09;;;-1.00
58102;BMP280;52034;51.926;6.320;2023-03-01T02:11:31;102958.31;;;-0.96
58102;BMP280;52034;51.926;6.320;2023-03-01T02:12:32;102949.81;;;-0.93
58102;BMP280;52034;51.926;6.320;2023-03-01T02:13:36;102952.56;;;-0.93
58102;BMP280;52034;51.926;6.320;2023-03-01T02:14:36;102950.53;;;-0.92
58102;BMP280;52034;51.926;6.320;2023-03-01T02:15:39;102948.53;;;-0.92
58102;BMP280;52034;51.926;6.320;2023-03-01T02:16:40;102947.78;;;-0.92
58102;BMP280;52034;51.926;6.320;2023-03-01T02:17:41;102953.56;;;-0.90
58102;BMP280;52034;51.926;6.320;2023-03-01T02:18:43;102951.03;;;-0.88
58102;BMP280;52034;51.926;6.320;2023-03-01T02:19:47;102950.78;;;-0.90
58102;BMP280;52034;51.926;6.320;2023-03-01T02:21:04;102954.81;;;-0.91
58102;BMP280;52034;51.926;6.320;2023-03-01T02:22:27;102944.78;;;-0.89
58102;BMP280;52034;51.926;6.320;2023-03-01T02:23:29;102948.53;;;-0.92
58102;BMP280;52034;51.926;6.320;2023-03-01T02:26:15;102944.28;;;-0.93
58102;BMP280;52034;51.926;6.320;2023-03-01T02:27:19;102944.78;;;-0.94
58102;BMP280;52034;51.926;6.320;2023-03-01T02:28:29;102941.81;;;-1.02
58102;BMP280;52034;51.926;6.320;2023-03-01T02:29:29;102948.81;;;-1.01
58102;BMP280;52034;51.926;6.320;2023-03-01T02:30:31;102942.31;;;-1.03
58102;BMP280;52034;51.926;6.320;2023-03-01T02:31:32;102942.81;;;-1.05
58102;BMP280;52034;51.926;6.320;2023-03-01T02:32:42;102942.56;;;-1.07
58102;BMP280;52034;51.926;6.320;2023-03-01T02:33:43;102931.56;;;-1.12
58102;BMP280;52034;51.926;6.320;2023-03-01T02:34:44;102940.81;;;-1.10
58102;BMP280;52034;51.926;6.320;2023-03-01T02:35:45;102938.34;;;-1.13
58102;BMP280;52034;51.926;6.320;2023-03-01T02:36:52;102937.56;;;-1.14
58102;BMP280;52034;51.926;6.320;2023-03-01T02:37:53;102936.81;;;-1.09
58102;BMP280;52034;51.926;6.320;2023-03-01T02:38:58;102940.31;;;-1.08
58102;BMP280;52034;51.926;6.320;2023-03-01T02:40:04;102938.06;;;-1.04
58102;BMP280;52034;51.926;6.320;2023-03-01T02:41:06;102939.81;;;-1.07
58102;BMP280;52034;51.926;6.320;2023-03-01T02:42:11;102938.31;;;-1.08
58102;BMP280;52034;51.926;6.320;2023-03-01T02:43:12;102933.56;;;-1.07
58102;BMP280;52034;51.926;6.320;2023-03-01T02:44:14;102932.28;;;-1.06
58102;BMP280;52034;51.926;6.320;2023-03-01T02:45:15;102939.06;;;-1.07
58102;BMP280;52034;51.926;6.320;2023-03-01T02:46:19;102935.31;;;-1.04
58102;BMP280;52034;51.926;6.320;2023-03-01T02:47:20;102938.28;;;-1.02
58102;BMP280;52034;51.926;6.320;2023-03-01T02:48:20;102936.78;;;-1.03
58102;BMP280;52034;51.926;6.320;2023-03-01T02:52:46;102935.56;;;-1.08
58102;BMP280;52034;51.926;6.320;2023-03-01T02:54:21;102931.06;;;-1.11
58102;BMP280;52034;51.926;6.320;2023-03-01T02:55:23;102929.81;;;-1.15
58102;BMP280;52034;51.926;6.320;2023-03-01T02:56:24;102937.81;;;-1.12
58102;BMP280;52034;51.926;6.320;2023-03-01T02:57:27;102931.56;;;-1.12
58102;BMP280;52034;51.926;6.320;2023-03-01T02:58:28;102934.31;;;-1.12
58102;BMP280;52034;51.926;6.320;2023-03-01T02:59:31;102930.06;;;-1.13
58102;BMP280;52034;51.926;6.320;2023-03-01T03:00:40;102927.53;;;-1.11
58102;BMP280;52034;51.926;6.320;2023-03-01T03:01:45;102929.56;;;-1.12
58102;BMP280;52034;51.926;6.320;2023-03-01T03:02:47;102929.28;;;-1.08
58102;BMP280;52034;51.926;6.320;2023-03-01T03:03:51;102935.56;;;-1.08
58102;BMP280;52034;51.926;6.320;2023-03-01T03:04:52;102929.06;;;-1.10
58102;BMP280;52034;51.926;6.320;2023-03-01T03:05:53;102931.81;;;-1.10
58102;BMP280;52034;51.926;6.320;2023-03-01T03:06:54;102924.28;;;-1.10
58102;BMP280;52034;51.926;6.320;2023-03-01T03:07:54;102930.81;;;-1.13
58102;BMP280;52034;51.926;6.320;2023-03-01T03:08:56;102930.81;;;-1.13
58102;BMP280;52034;51.926;6.320;2023-03-01T03:09:56;102925.81;;;-1.14
58102;BMP280;52034;51.926;6.320;2023-03-01T03:10:56;102927.56;;;-1.17
58102;BMP280;52034;51.926;6.320;2023-03-01T03:11:57;102936.09;;;-1.15
58102;BMP280;52034;51.926;6.320;2023-03-01T03:13:03;102926.53;;;-1.14
58102;BMP280;52034;51.926;6.320;2023-03-01T03:14:05;102926.53;;;-1.14
58102;BMP280;52034;51.926;6.320;2023-03-01T03:15:07;102924.78;;;-1.17
58102;BMP280;52034;51.926;6.320;2023-03-01T03:16:09;102922.03;;;-1.17
58102;BMP280;52034;51.926;6.320;2023-03-01T03:17:09;102925.56;;;-1.16
58102;BMP280;52034;51.926;6.320;2023-03-01T03:18:14;102925.81;;;-1.20
58102;BMP280;52034;51.926;6.320;2023-03-01T03:19:18;102932.31;;;-1.23
58102;BMP280;52034;51.926;6.320;2023-03-01T03:20:21;102927.31;;;-1.24
58102;BMP280;52034;51.926;6.320;2023-03-01T03:21:21;102925.31;;;-1.24
58102;BMP280;52034;51.926;6.320;2023-03-01T03:22:22;102929.56;;;-1.23
58102;BMP280;52034;51.926;6.320;2023-03-01T03:23:22;102925.09;;;-1.26
58102;BMP280;52034;51.926;6.320;2023-03-01T03:24:23;102930.06;;;-1.24
58102;BMP280;52034;51.926;6.320;2023-03-01T03:25:24;102920.31;;;-1.25
58102;BMP280;52034;51.926;6.320;2023-03-01T03:26:25;102924.34;;;-1.26
58102;BMP280;52034;51.926;6.320;2023-03-01T03:27:25;102922.59;;;-1.29
58102;BMP280;52034;51.926;6.320;2023-03-01T03:28:25;102926.34;;;-1.27
58102;BMP280;52034;51.926;6.320;2023-03-01T03:29:26;102924.34;;;-1.32
58102;BMP280;52034;51.926;6.320;2023-03-01T03:30:29;102922.56;;;-1.35
58102;BMP280;52034;51.926;6.320;2023-03-01T03:31:29;102927.34;;;-1.30
58102;BMP280;52034;51.926;6.320;2023-03-01T03:32:30;102929.59;;;-1.28
58102;BMP280;52034;51.926;6.320;2023-03-01T03:33:30;102923.56;;;-1.27
58102;BMP280;52034;51.926;6.320;2023-03-01T03:34:31;102914.31;;;-1.29
58102;BMP280;52034;51.926;6.320;2023-03-01T03:35:34;102920.81;;;-1.27
58102;BMP280;52034;51.926;6.320;2023-03-01T03:36:37;102913.81;;;-1.28
58102;BMP280;52034;51.926;6.320;2023-03-01T03:37:39;102920.09;;;-1.27
58102;BMP280;52034;51.926;6.320;2023-03-01T03:38:58;102922.34;;;-1.26
58102;BMP280;52034;51.926;6.320;2023-03-01T03:39:58;102923.34;;;-1.29
58102;BMP280;52034;51.926;6.320;2023-03-01T03:41:04;102916.81;;;-1.31
58102;BMP280;52034;51.926;6.320;2023-03-01T03:42:05;102927.34;;;-1.30
58102;BMP280;52034;51.926;6.320;2023-03-01T03:43:11;102924.34;;;-1.32
58102;BMP280;52034;51.926;6.320;2023-03-01T03:44:12;102919.06;;;-1.35
58102;BMP280;52034;51.926;6.320;2023-03-01T03:45:12;102924.59;;;-1.41
58102;BMP280;52034;51.926;6.320;2023-03-01T03:46:12;102919.59;;;-1.42
58102;BMP280;52034;51.926;6.320;2023-03-01T03:47:13;102919.09;;;-1.46
58102;BMP280;52034;51.926;6.320;2023-03-01T03:48:14;102914.09;;;-1.48
58102;BMP280;52034;51.926;6.320;2023-03-01T03:49:15;102915.09;;;-1.51
58102;BMP280;52034;51.926;6.320;2023-03-01T03:50:16;102912.34;;;-1.51
58102;BMP280;52034;51.926;6.320;2023-03-01T03:51:17;102912.06;;;-1.53
58102;BMP280;52034;51.926;6.320;2023-03-01T03:52:18;102911.56;;;-1.51
58102;BMP280;52034;51.926;6.320;2023-03-01T03:53:19;102911.84;;;-1.55
58102;BMP280;52034;51.926;6.320;2023-03-01T03:54:20;102904.81;;;-1.56
58102;BMP280;52034;51.926;6.320;2023-03-01T03:55:20;102903.84;;;-1.58
58102;BMP280;52034;51.926;6.320;2023-03-01T03:56:20;102906.84;;;-1.56
58102;BMP280;52034;51.926;6.320;2023-03-01T03:57:21;102906.09;;;-1.57
58102;BMP280;52034;51.926;6.320;2023-03-01T03:58:23;102898.56;;;-1.56
58102;BMP280;52034;51.926;6.320;2023-03-01T03:59:24;102899.09;;;-1.58
58102;BMP280;52034;51.926;6.320;2023-03-01T04:00:24;102905.81;;;-1.59
58102;BMP280;52034;51.926;6.320;2023-03-01T04:01:24;102893.06;;;-1.56
58102;BMP280;52034;51.926;6.320;2023-03-01T04:02:25;102905.09;;;-1.59
58102;BMP280;52034;51.926;6.320;2023-03-01T04:03:27;102903.31;;;-1.57
58102;BMP280;52034;51.926;6.320;2023-03-01T04:04:27;102897.81;;;-1.57
58102;BMP280;52034;51.926;6.320;2023-03-01T04:05:28;102900.56;;;-1.57
58102;BMP280;52034;51.926;6.320;2023-03-01T04:06:29;102900.06;;;-1.55
58102;BMP280;52034;51.926;6.320;2023-03-01T04:07:29;102911.09;;;-1.55
58102;BMP280;52034;51.926;6.320;2023-03-01T04:08:30;102906.06;;;-1.51
58102;BMP280;52034;51.926;6.320;2023-03-01T04:09:30;102901.34;;;-1.56
58102;BMP280;52034;51.926;6.320;2023-03-01T04:11:36;102898.56;;;-1.56
58102;BMP280;52034;51.926;6.320;2023-03-01T04:12:38;102895.56;;;-1.58
58102;BMP280;52034;51.926;6.320;2023-03-01T04:13:39;102896.56;;;-1.56
58102;BMP280;52034;51.926;6.320;2023-03-01T04:14:39;102893.56;;;-1.52
58102;BMP280;52034;51.926;6.320;2023-03-01T04:15:39;102894.31;;;-1.52
58102;BMP280;52034;51.926;6.320;2023-03-01T04:16:40;102896.03;;;-1.49
58102;BMP280;52034;51.926;6.320;2023-03-01T04:17:46;102898.06;;;-1.49
58102;BMP280;52034;51.926;6.320;2023-03-01T04:18:47;102898.28;;;-1.47
58102;BMP280;52034;51.926;6.320;2023-03-01T04:19:47;102890.03;;;-1.47
58102;BMP280;52034;51.926;6.320;2023-03-01T04:20:49;102884.50;;;-1.47
58102;BMP280;52034;51.926;6.320;2023-03-01T04:21:52;102894.53;;;-1.44
58102;BMP280;52034;51.926;6.320;2023-03-01T04:23:05;102895.78;;;-1.45
58102;BMP280;52034;51.926;6.320;2023-03-01T04:24:13;102894.03;;;-1.48
58102;BMP280;52034;51.926;6.320;2023-03-01T04:25:13;102893.81;;;-1.50
58102;BMP280;52034;51.926;6.320;2023-03-01T04:26:14;102889.78;;;-1.49
58102;BMP280;52034;51.926;6.320;2023-03-01T04:27:15;102890.53;;;-1.54
58102;BMP280;52034;51.926;6.320;2023-03-01T04:28:15;102883.53;;;-1.55
58102;BMP280;52034;51.926;6.320;2023-03-01T04:29:16;102887.03;;;-1.60
58102;BMP280;52034;51.926;6.320;2023-03-01T04:30:16;102885.81;;;-1.65
58102;BMP280;52034;51.926;6.320;2023-03-01T04:31:18;102885.56;;;-1.67
58102;BMP280;52034;51.926;6.320;2023-03-01T04:32:21;102881.06;;;-1.70
58102;BMP280;52034;51.926;6.320;2023-03-01T04:33:21;102886.56;;;-1.70
58102;BMP280;52034;51.926;6.320;2023-03-01T04:34:22;102884.31;;;-1.71
58102;BMP280;52034;51.926;6.320;2023-03-01T04:35:22;102889.06;;;-1.72
58102;BMP280;52034;51.926;6.320;2023-03-01T04:36:25;102885.06;;;-1.71
58102;BMP280;52034;51.926;6.320;2023-03-01T04:37:27;102882.81;;;-1.72
58102;BMP280;52034;51.926;6.320;2023-03-01T04:38:27;102883.31;;;-1.74
58102;BMP280;52034;51.926;6.320;2023-03-01T04:39:27;102881.31;;;-1.73
58102;BMP280;52034;51.926;6.320;2023-03-01T04:40:28;102881.81;;;-1.75
58102;BMP280;52034;51.926;6.320;2023-03-01T04:41:28;102878.06;;;-1.77
58102;BMP280;52034;51.926;6.320;2023-03-01T04:42:28;102874.81;;;-1.76
58102;BMP280;52034;51.926;6.320;2023-03-01T04:43:29;102872.81;;;-1.81
58102;BMP280;52034;51.926;6.320;2023-03-01T04:44:29;102873.81;;;-1.78
58102;BMP280;52034;51.926;6.320;2023-03-01T04:45:31;102875.81;;;-1.79
58102;BMP280;52034;51.926;6.320;2023-03-01T04:46:32;102873.06;;;-1.79
58102;BMP280;52034;51.926;6.320;2023-03-01T04:47:32;102877.84;;;-1.79
58102;BMP280;52034;51.926;6.320;2023-03-01T04:48:33;102882.34;;;-1.76
58102;BMP280;52034;51.926;6.320;2023-03-01T04:49:33;102886.31;;;-1.72
58102;BMP280;52034;51.926;6.320;2023-03-01T04:50:34;102875.31;;;-1.72
58102;BMP280;52034;51.926;6.320;2023-03-01T04:51:34;102878.56;;;-1.68
58102;BMP280;52034;51.926;6.320;2023-03-01T04:52:35;102881.31;;;-1.68
58102;BMP280;52034;51.926;6.320;2023-03-01T04:53:35;102870.56;;;-1.71
58102;BMP280;52034;51.926;6.320;2023-03-01T04:54:39;102878.31;;;-1.70
58102;BMP280;52034;51.926;6.320;2023-03-01T04:55:39;102877.31;;;-1.67
58102;BMP280;52034;51.926;6.320;2023-03-01T04:56:39;102879.81;;;-1.63
58102;BMP280;52034;51.926;6.320;2023-03-01T04:57:40;102872.78;;;-1.64
58102;BMP280;52034;51.926;6.320;2023-03-01T04:58:41;102873.03;;;-1.62
58102;BMP280;52034;51.926;6.320;2023-03-01T04:59:42;102867.03;;;-1.61
58102;BMP280;52034;51.926;6.320;2023-03-01T05:00:42;102870.53;;;-1.60
58102;BMP280;52034;51.926;6.320;2023-03-01T05:01:42;102867.53;;;-1.62
58102;BMP280;52034;51.926;6.320;2023-03-01T05:02:42;102868.53;;;-1.60
58102;BMP280;52034;51.926;6.320;2023-03-01T05:03:44;102859.75;;;-1.58
58102;BMP280;52034;51.926;6.320;2023-03-01T05:04:45;102867.53;;;-1.57
58102;BMP280;52034;51.926;6.320;2023-03-01T05:05:47;102865.53;;;-1.56
58102;BMP280;52034;51.926;6.320;2023-03-01T05:06:49;102867.00;;;-1.55
58102;BMP280;52034;51.926;6.320;2023-03-01T05:07:49;102860.75;;;-1.56
58102;BMP280;52034;51.926;6.320;2023-03-01T05:08:49;102860.00;;;-1.56
58102;BMP280;52034;51.926;6.320;2023-03-01T05:09:50;102850.22;;;-1.57
58102;BMP280;52034;51.926;6.320;2023-03-01T05:10:51;102853.50;;;-1.59
58102;BMP280;52034;51.926;6.320;2023-03-01T05:11:52;102850.50;;;-1.61
58102;BMP280;52034;51.926;6.320;2023-03-01T05:12:52;102843.25;;;-1.64
58102;BMP280;52034;51.926;6.320;2023-03-01T05:13:53;102845.53;;;-1.68
58102;BMP280;52034;51.926;6.320;2023-03-01T05:14:54;102845.00;;;-1.66
58102;BMP280;52034;51.926;6.320;2023-03-01T05:15:57;102846.75;;;-1.69
58102;BMP280;52034;51.926;6.320;2023-03-01T05:16:58;102845.25;;;-1.70
58102;BMP280;52034;51.926;6.320;2023-03-01T05:18:03;102839.50;;;-1.72
58102;BMP280;52034;51.926;6.320;2023-03-01T05:19:04;102840.50;;;-1.75
58102;BMP280;52034;51.926;6.320;2023-03-01T05:20:11;102844.53;;;-1.76
58102;BMP280;52034;51.926;6.320;2023-03-01T05:21:13;102839.50;;;-1.77
58102;BMP280;52034;51.926;6.320;2023-03-01T05:22:16;102840.28;;;-1.77
58102;BMP280;52034;51.926;6.320;2023-03-01T05:23:16;102827.50;;;-1.80
58102;BMP280;52034;51.926;6.320;2023-03-01T05:24:16;102838.03;;;-1.78
58102;BMP280;52034;51.926;6.320;2023-03-01T05:25:17;102840.78;;;-1.84
58102;BMP280;52034;51.926;6.320;2023-03-01T05:26:19;102838.50;;;-1.85
58102;BMP280;52034;51.926;6.320;2023-03-01T05:27:21;102837.75;;;-1.86
58102;BMP280;52034;51.926;6.320;2023-03-01T05:28:22;102840.00;;;-1.90
58102;BMP280;52034;51.926;6.320;2023-03-01T05:29:24;102833.03;;;-1.91
58102;BMP280;52034;51.926;6.320;2023-03-01T05:30:25;102832.50;;;-1.95
58102;BMP280;52034;51.926;6.320;2023-03-01T05:31:25;102831.78;;;-1.95
58102;BMP280;52034;51.926;6.320;2023-03-01T05:32:25;102834.25;;;-1.97
58102;BMP280;52034;51.926;6.320;2023-03-01T05:33:26;102828.50;;;-1.99
58102;BMP280;52034;51.926;6.320;2023-03-01T05:34:33;102827.50;;;-1.96
58102;BMP280;52034;51.926;6.320;2023-03-01T05:35:33;102831.00;;;-1.96
58102;BMP280;52034;51.926;6.320;2023-03-01T05:36:33;102830.25;;;-1.91
58102;BMP280;52034;51.926;6.320;2023-03-01T05:37:34;102828.25;;;-1.90
58102;BMP280;52034;51.926;6.320;2023-03-01T05:38:35;102814.97;;;-1.92
58102;BMP280;52034;51.926;6.320;2023-03-01T05:39:36;102819.75;;;-1.87
58102;BMP280;52034;51.926;6.320;2023-03-01T05:40:36;102824.47;;;-1.87
58102;BMP280;52034;51.926;6.320;2023-03-01T05:41:36;102825.00;;;-1.83
58102;BMP280;52034;51.926;6.320;2023-03-01T05:42:37;102823.28;;;-1.81
58102;BMP280;52034;51.926;6.320;2023-03-01T05:43:37;102826.50;;;-1.77
58102;BMP280;52034;51.926;6.320;2023-03-01T05:44:39;102829.25;;;-1.77
58102;BMP280;52034;51.926;6.320;2023-03-01T05:45:40;102833.75;;;-1.74
58102;BMP280;52034;51.926;6.320;2023-03-01T05:46:40;102830.03;;;-1.76
58102;BMP280;52034;51.926;6.320;2023-03-01T05:47:41;102823.75;;;-1.77
58102;BMP280;52034;51.926;6.320;2023-03-01T05:48:43;102824.25;;;-1.78
58102;BMP280;52034;51.926;6.320;2023-03-01T05:49:44;102820.50;;;-1.81
58102;BMP280;52034;51.926;6.320;2023-03-01T05:50:44;102817.50;;;-1.77
58102;BMP280;52034;51.926;6.320;2023-03-01T05:51:50;102827.75;;;-1.78
58102;BMP280;52034;51.926;6.320;2023-03-01T05:52:57;102820.75;;;-1.79
58102;BMP280;52034;51.926;6.320;2023-03-01T05:53:58;102816.47;;;-1.85
58102;BMP280;52034;51.926;6.320;2023-03-01T05:54:58;102814.47;;;-1.85
58102;BMP280;52034;51.926;6.320;2023-03-01T05:55:58;102818.47;;;-1.86
58102;BMP280;52034;51.926;6.320;2023-03-01T05:56:59;102821.22;;;-1.86
58102;BMP280;52034;51.926;6.320;2023-03-01T05:58:00;102820.75;;;-1.90
58102;BMP280;52034;51.926;6.320;2023-03-01T05:59:02;102821.50;;;-1.89
58102;BMP280;52034;51.926;6.320;2023-03-01T06:00:03;102828.25;;;-1.90
58102;BMP280;52034;51.926;6.320;2023-03-01T06:01:12;102826.50;;;-1.88